TimeAKST,TemperatureF,Dew PointF,Humidity,Sea Level PressureIn,VisibilityMPH,Wind Direction,Wind SpeedMPH,Gust SpeedMPH,PrecipitationIn,Events,Conditions,WindDirDegrees,DateUTC
12:53 AM,-13.0,-23.1,61,29.76,10.0,North,19.6,28.8,N/A,,Scattered Clouds,10,2014-02-13 09:53:00
1:53 AM,-15.0,-23.1,67,29.73,10.0,SE,5.8,-,N/A,,Scattered Clouds,130,2014-02-13 10:53:00
2:53 AM,-17.0,-24.0,70,29.74,10.0,NE,4.6,-,N/A,,Clear,50,2014-02-13 11:53:00
3:53 AM,-14.1,-24.0,61,29.75,10.0,WNW,3.5,-,N/A,,Clear,290,2014-02-13 12:53:00
4:53 AM,-14.1,-24.0,61,29.76,10.0,Calm,Calm,-,N/A,,Clear,0,2014-02-13 13:53:00
5:53 AM,-16.1,-25.1,64,29.76,10.0,Calm,Calm,-,N/A,,Clear,0,2014-02-13 14:53:00
6:53 AM,-15.0,-25.1,61,29.76,10.0,NNW,8.1,-,N/A,,Clear,340,2014-02-13 15:53:00
7:53 AM,-15.0,-25.1,61,29.76,10.0,NNW,9.2,-,N/A,,Clear,340,2014-02-13 16:53:00
8:53 AM,-15.0,-25.1,61,29.75,10.0,NNW,12.7,-,N/A,,Clear,340,2014-02-13 17:53:00
9:53 AM,-15.0,-25.1,61,29.75,10.0,NW,5.8,-,N/A,,Clear,320,2014-02-13 18:53:00
10:53 AM,-15.0,-23.1,67,29.74,10.0,Calm,Calm,-,N/A,,Clear,0,2014-02-13 19:53:00
11:53 AM,-11.0,-22.0,58,29.74,10.0,Calm,Calm,-,N/A,,Clear,0,2014-02-13 20:53:00
12:53 PM,-9.0,-23.1,50,29.73,10.0,NNW,4.6,-,N/A,,Clear,340,2014-02-13 21:53:00
1:53 PM,-7.1,-20.9,51,29.71,10.0,North,9.2,-,N/A,,Clear,360,2014-02-13 22:53:00
2:53 PM,-9.0,-20.9,56,29.70,10.0,East,4.6,-,N/A,,Clear,100,2014-02-13 23:53:00
3:53 PM,-6.0,-20.0,51,29.68,10.0,NNE,5.8,-,N/A,,Partly Cloudy,20,2014-02-14 00:53:00
4:53 PM,-7.1,-20.0,53,29.69,10.0,North,8.1,-,N/A,,Partly Cloudy,10,2014-02-14 01:53:00
5:53 PM,-7.1,-20.9,51,29.68,10.0,Calm,Calm,-,N/A,,Partly Cloudy,0,2014-02-14 02:53:00
6:53 PM,-9.0,-20.9,56,29.68,10.0,NNW,4.6,-,N/A,,Clear,340,2014-02-14 03:53:00
7:53 PM,-9.9,-20.9,59,29.68,10.0,NE,4.6,-,N/A,,Partly Cloudy,40,2014-02-14 04:53:00
8:53 PM,-9.9,-22.0,55,29.66,10.0,North,3.5,-,N/A,,Clear,10,2014-02-14 05:53:00
9:53 PM,-11.0,-20.9,62,29.67,10.0,North,6.9,-,N/A,,Clear,360,2014-02-14 06:53:00
10:53 PM,-13.0,-20.9,68,29.66,10.0,Calm,Calm,-,N/A,,Partly Cloudy,0,2014-02-14 07:53:00
11:53 PM,-13.0,-22.0,64,29.65,10.0,Calm,Calm,-,N/A,,Clear,0,2014-02-14 08:53:00